createdAt,value
2023-05-08T00:00:37.084Z,99.90
2023-05-08T00:05:42.614Z,99.90
2023-05-08T00:10:45.231Z,99.90
2023-05-08T00:15:47.814Z,99.90
2023-05-08T00:20:50.543Z,99.90
2023-05-08T00:25:52.947Z,99.90
2023-05-08T00:30:55.499Z,99.90
2023-05-08T00:36:05.354Z,99.90
2023-05-08T00:41:08.088Z,99.90
2023-05-08T00:46:11.672Z,99.90
2023-05-08T00:51:15.246Z,99.90
2023-05-08T00:56:20.731Z,99.90
2023-05-08T01:01:23.898Z,99.90
2023-05-08T01:06:26.786Z,99.90
2023-05-08T01:12:13.445Z,99.90
2023-05-08T01:17:31.145Z,99.90
2023-05-08T01:23:24.009Z,99.90
2023-05-08T01:28:53.697Z,99.90
2023-05-08T01:34:02.165Z,99.90
2023-05-08T01:39:11.187Z,99.90
2023-05-08T01:44:21.472Z,99.90
2023-05-08T01:49:25.657Z,99.90
2023-05-08T01:54:34.002Z,99.90
2023-05-08T01:59:38.422Z,99.90
2023-05-08T02:04:43.361Z,99.90
2023-05-08T02:09:47.005Z,99.90
2023-05-08T02:14:53.130Z,99.90
2023-05-08T02:19:58.164Z,99.90
2023-05-08T02:25:01.785Z,99.90
2023-05-08T02:30:05.055Z,99.90
2023-05-08T02:35:09.236Z,99.90
2023-05-08T02:40:14.339Z,99.90
2023-05-08T02:45:17.427Z,99.90
2023-05-08T02:50:27.276Z,99.90
2023-05-08T02:55:50.712Z,99.90
2023-05-08T03:01:06.751Z,99.90
2023-05-08T03:06:17.130Z,99.90
2023-05-08T03:11:24.347Z,99.90
2023-05-08T03:16:31.982Z,99.90
2023-05-08T03:21:37.346Z,99.90
2023-05-08T03:26:40.137Z,99.90
2023-05-08T03:31:43.566Z,99.90
2023-05-08T03:36:46.804Z,99.90
2023-05-08T03:41:50.029Z,99.90
2023-05-08T03:46:56.048Z,99.90
2023-05-08T03:51:59.539Z,99.90
2023-05-08T03:57:02.216Z,99.90
2023-05-08T04:02:25.691Z,99.90
2023-05-08T04:07:33.933Z,99.90
2023-05-08T04:13:35.133Z,99.90
2023-05-08T04:18:44.326Z,99.90
2023-05-08T04:23:51.198Z,99.90
2023-05-08T04:28:54.286Z,99.90
2023-05-08T04:33:58.227Z,99.90
2023-05-08T04:39:01.071Z,99.90
2023-05-08T04:44:05.359Z,99.90
2023-05-08T04:49:08.126Z,99.90
2023-05-08T04:54:11.376Z,99.90
2023-05-08T04:59:15.998Z,99.90
2023-05-08T05:04:19.403Z,99.90
2023-05-08T05:09:22.089Z,99.90
2023-05-08T05:14:24.948Z,99.90
2023-05-08T05:19:27.709Z,99.90
2023-05-08T05:24:30.425Z,99.90
2023-05-08T05:29:33.982Z,99.90
2023-05-08T05:39:39.808Z,99.90
2023-05-08T05:44:42.669Z,99.90
2023-05-08T05:49:47.391Z,99.90
2023-05-08T05:54:50.972Z,99.90
2023-05-08T05:59:54.853Z,99.90
2023-05-08T06:04:59.372Z,99.90
2023-05-08T06:10:02.229Z,99.90
2023-05-08T06:15:05.250Z,99.90
2023-05-08T06:20:08.710Z,99.90
2023-05-08T06:25:11.406Z,99.90
2023-05-08T06:30:14.198Z,99.90
2023-05-08T06:35:18.618Z,99.90
2023-05-08T06:40:21.241Z,99.90
2023-05-08T06:45:23.752Z,99.90
2023-05-08T06:50:26.284Z,99.90
2023-05-08T06:55:28.839Z,99.90
2023-05-08T07:00:32.361Z,99.90
2023-05-08T07:05:34.828Z,99.90
2023-05-08T07:10:37.278Z,99.90
2023-05-08T07:15:39.801Z,99.30
2023-05-08T07:20:42.337Z,98.20
2023-05-08T07:25:44.822Z,98.80
2023-05-08T07:30:47.474Z,96.10
2023-05-08T07:35:49.897Z,96.50
2023-05-08T07:40:57.119Z,94.50
2023-05-08T07:45:59.800Z,94.60
2023-05-08T07:51:02.352Z,95.60
2023-05-08T07:56:05.726Z,92.30
2023-05-08T08:01:08.154Z,96.80
2023-05-08T08:06:10.775Z,92.70
2023-05-08T08:11:13.315Z,96.00
2023-05-08T08:16:15.783Z,93.80
2023-05-08T08:21:18.470Z,92.50
2023-05-08T08:26:21.045Z,95.80
2023-05-08T08:31:23.732Z,81.40
2023-05-08T08:36:26.313Z,85.40
2023-05-08T08:41:29.461Z,71.80
2023-05-08T08:51:51.244Z,86.30
2023-05-08T08:56:55.908Z,85.50
2023-05-08T09:02:05.948Z,87.30
2023-05-08T09:07:09.076Z,79.00
2023-05-08T09:12:14.439Z,77.40
2023-05-08T09:17:16.891Z,76.90
2023-05-08T09:22:21.224Z,76.40
2023-05-08T09:27:25.853Z,73.60
2023-05-08T09:32:29.758Z,69.40
2023-05-08T09:37:32.458Z,68.40
2023-05-08T10:08:23.304Z,62.90
2023-05-08T10:13:26.283Z,58.20
2023-05-08T10:18:35.546Z,65.00
2023-05-08T10:23:42.439Z,53.60
2023-05-08T10:29:08.869Z,57.70
2023-05-08T10:34:17.374Z,43.60
2023-05-08T10:39:20.823Z,59.30
2023-05-08T10:44:24.484Z,64.10
2023-05-08T10:49:51.853Z,50.60
2023-05-08T10:54:54.230Z,52.70
2023-05-08T10:59:56.788Z,53.70
2023-05-08T11:05:18.433Z,55.30
2023-05-08T11:10:21.165Z,58.80
2023-05-08T11:15:40.687Z,64.30
2023-05-08T11:20:57.709Z,52.70
2023-05-08T11:26:05.553Z,60.90
2023-05-08T11:31:08.959Z,51.20
2023-05-08T11:36:20.671Z,61.90
2023-05-08T11:41:24.596Z,49.50
2023-05-08T11:46:41.175Z,47.60
2023-05-08T11:51:54.828Z,51.00
2023-05-08T11:56:57.650Z,55.60
2023-05-08T12:02:08.454Z,50.20
2023-05-08T12:07:11.933Z,54.60
2023-05-08T12:12:14.455Z,52.20
2023-05-08T12:17:20.172Z,55.30
2023-05-08T12:22:22.718Z,61.20
2023-05-08T12:27:25.241Z,51.80
2023-05-08T12:32:29.092Z,47.90
2023-05-08T12:37:31.811Z,49.90
2023-05-08T12:42:43.914Z,46.40
2023-05-08T12:47:50.954Z,53.80
2023-05-08T12:52:54.082Z,49.00
2023-05-08T12:58:15.460Z,54.10
2023-05-08T13:03:26.691Z,33.50
2023-05-08T13:08:33.585Z,40.40
2023-05-08T13:13:37.137Z,51.10
2023-05-08T13:18:39.830Z,36.10
2023-05-08T13:23:43.505Z,43.30
2023-05-08T13:28:46.184Z,48.80
2023-05-08T13:33:48.616Z,49.80
2023-05-08T13:38:57.230Z,45.80
2023-05-08T13:44:11.120Z,42.50
2023-05-08T13:49:13.607Z,43.60
2023-05-08T13:54:16.168Z,42.20
2023-05-08T13:59:18.552Z,43.80
2023-05-08T14:04:21.103Z,37.10
2023-05-08T14:09:23.584Z,55.30
2023-05-08T14:14:26.032Z,49.50
2023-05-08T14:19:28.425Z,40.10
2023-05-08T14:24:30.830Z,39.40
2023-05-08T14:29:34.277Z,45.70
2023-05-08T14:34:36.931Z,43.70
2023-05-08T14:39:39.615Z,42.10
2023-05-08T14:44:42.245Z,40.00
2023-05-08T14:49:44.856Z,33.30
2023-05-08T14:54:53.053Z,38.20
2023-05-08T14:59:57.169Z,36.20
2023-05-08T15:04:59.804Z,37.70
2023-05-08T15:10:03.308Z,28.60
2023-05-08T15:15:06.380Z,41.30
2023-05-08T15:20:09.860Z,38.30
2023-05-08T15:25:28.396Z,36.60
2023-05-08T15:30:56.540Z,37.50
2023-05-08T15:35:58.965Z,42.10
2023-05-08T15:41:01.337Z,50.90
2023-05-08T15:46:03.953Z,30.50
2023-05-08T15:51:06.430Z,39.50
2023-05-08T15:56:09.200Z,51.00
2023-05-08T16:01:11.733Z,50.00
2023-05-08T16:06:14.219Z,46.70
2023-05-08T16:11:16.725Z,44.70
2023-05-08T16:16:19.294Z,42.20
2023-05-08T16:21:22.783Z,41.70
2023-05-08T16:26:26.352Z,46.80
2023-05-08T16:31:29.139Z,38.90
2023-05-08T16:36:31.837Z,36.20
2023-05-08T16:41:34.382Z,34.20
2023-05-08T16:46:36.814Z,34.70
2023-05-08T16:51:39.360Z,34.90
2023-05-08T16:56:41.855Z,35.80
2023-05-08T17:01:44.532Z,35.90
2023-05-08T17:06:47.265Z,31.70
2023-05-08T17:11:49.731Z,35.50
2023-05-08T17:16:52.094Z,33.80
2023-05-08T17:21:54.462Z,32.00
2023-05-08T17:26:56.944Z,33.80
2023-05-08T17:31:59.435Z,34.80
2023-05-08T17:37:02.062Z,38.90
2023-05-08T17:42:04.645Z,37.70
2023-05-08T17:47:07.126Z,40.20
2023-05-08T17:52:09.689Z,42.10
2023-05-08T17:57:12.260Z,43.60
2023-05-08T18:02:14.914Z,44.20
2023-05-08T18:07:17.648Z,47.10
2023-05-08T18:12:20.237Z,53.00
2023-05-08T18:17:23.103Z,53.10
2023-05-08T18:27:28.874Z,58.70
2023-05-08T18:32:31.393Z,59.00
2023-05-08T18:37:34.712Z,61.00
2023-05-08T18:42:37.426Z,64.80
2023-05-08T18:47:40.023Z,68.80
2023-05-08T18:52:42.537Z,74.00
2023-05-08T18:57:44.959Z,83.10
2023-05-08T19:02:47.544Z,84.90
2023-05-08T19:07:50.083Z,88.30
2023-05-08T19:12:52.718Z,90.00
2023-05-08T19:17:55.223Z,91.20
2023-05-08T19:22:57.904Z,92.50
2023-05-08T19:28:00.397Z,94.50
2023-05-08T19:33:03.006Z,95.90
2023-05-08T19:38:05.642Z,96.60
2023-05-08T19:43:08.148Z,97.40
2023-05-08T19:48:17.367Z,97.50
2023-05-08T19:53:20.675Z,98.50
2023-05-08T19:58:23.466Z,99.70
2023-05-08T20:03:26.386Z,99.90
2023-05-08T20:08:29.249Z,99.90
2023-05-08T20:13:31.761Z,99.90
2023-05-08T20:18:35.637Z,99.90
2023-05-08T20:23:39.845Z,99.90
2023-05-08T20:28:42.292Z,99.90
2023-05-08T20:33:44.742Z,99.90
2023-05-08T20:38:47.386Z,99.90
2023-05-08T20:43:49.890Z,99.90
2023-05-08T20:48:52.435Z,99.90
2023-05-08T20:53:54.933Z,99.90
2023-05-08T21:04:00.191Z,99.90
2023-05-08T21:09:04.106Z,99.90
2023-05-08T21:14:08.384Z,99.90
2023-05-08T21:19:13.928Z,99.90
2023-05-08T21:24:16.431Z,99.90
2023-05-08T21:29:19.238Z,99.90
2023-05-08T21:34:21.812Z,99.90
2023-05-08T21:39:24.550Z,99.90
2023-05-08T21:44:27.022Z,99.90
2023-05-08T21:49:29.507Z,99.90
2023-05-08T21:54:31.955Z,99.90
2023-05-08T21:59:34.493Z,99.90
2023-05-08T22:04:36.974Z,99.90
2023-05-08T22:09:39.373Z,99.90
2023-05-08T22:14:42.210Z,99.90
2023-05-08T22:24:47.385Z,99.90
2023-05-08T22:29:49.845Z,99.90
2023-05-08T22:34:52.462Z,99.90
2023-05-08T22:39:54.989Z,99.90
2023-05-08T22:44:57.520Z,99.90
2023-05-08T22:49:59.948Z,99.90
2023-05-08T22:55:02.981Z,99.90
2023-05-08T23:00:07.257Z,99.90
2023-05-08T23:10:14.320Z,99.90
2023-05-08T23:15:16.973Z,99.90
2023-05-08T23:20:19.733Z,99.90
2023-05-08T23:25:22.278Z,99.90
2023-05-08T23:30:24.719Z,99.90
2023-05-08T23:35:28.443Z,99.90
2023-05-08T23:40:30.930Z,99.90
2023-05-08T23:45:33.496Z,99.90
2023-05-08T23:50:36.044Z,99.90
2023-05-08T23:55:38.470Z,99.90
